sensor_id;sensor_type;location;lat;lon;timestamp;temperature;humidity
19025;DHT22;9645;51.448;6.260;2023-06-22T00:01:25;19.90;99.90
19025;DHT22;9645;51.448;6.260;2023-06-22T00:03:52;20.00;99.90
19025;DHT22;9645;51.448;6.260;2023-06-22T00:06:19;19.30;99.90
19025;DHT22;9645;51.448;6.260;2023-06-22T00:08:47;19.90;99.90
19025;DHT22;9645;51.448;6.260;2023-06-22T00:11:14;19.90;99.90
19025;DHT22;9645;51.448;6.260;2023-06-22T00:13:42;19.90;99.90
19025;DHT22;9645;51.448;6.260;2023-06-22T00:16:09;19.80;99.90
19025;DHT22;9645;51.448;6.260;2023-06-22T00:18:36;19.80;99.90
19025;DHT22;9645;51.448;6.260;2023-06-22T00:21:04;19.90;99.90
19025;DHT22;9645;51.448;6.260;2023-06-22T00:23:32;19.90;99.90
19025;DHT22;9645;51.448;6.260;2023-06-22T00:26:00;19.90;99.90
19025;DHT22;9645;51.448;6.260;2023-06-22T00:28:27;19.90;99.90
19025;DHT22;9645;51.448;6.260;2023-06-22T00:30:56;20.00;99.90
19025;DHT22;9645;51.448;6.260;2023-06-22T00:33:23;20.00;99.90
19025;DHT22;9645;51.448;6.260;2023-06-22T00:35:50;20.10;99.90
19025;DHT22;9645;51.448;6.260;2023-06-22T00:38:18;19.90;99.90
19025;DHT22;9645;51.448;6.260;2023-06-22T00:40:45;20.00;99.90
19025;DHT22;9645;51.448;6.260;2023-06-22T00:43:12;20.00;99.90
19025;DHT22;9645;51.448;6.260;2023-06-22T00:45:39;20.00;99.90
19025;DHT22;9645;51.448;6.260;2023-06-22T00:48:08;19.90;99.90
19025;DHT22;9645;51.448;6.260;2023-06-22T00:50:36;19.90;99.90
19025;DHT22;9645;51.448;6.260;2023-06-22T00:53:05;19.90;99.90
19025;DHT22;9645;51.448;6.260;2023-06-22T00:55:34;19.80;99.90
19025;DHT22;9645;51.448;6.260;2023-06-22T01:10:43;19.80;99.90
19025;DHT22;9645;51.448;6.260;2023-06-22T01:13:18;19.70;99.90
19025;DHT22;9645;51.448;6.260;2023-06-22T01:15:51;19.90;99.90
19025;DHT22;9645;51.448;6.260;2023-06-22T01:18:21;19.80;99.90
19025;DHT22;9645;51.448;6.260;2023-06-22T01:20:53;19.80;99.90
19025;DHT22;9645;51.448;6.260;2023-06-22T01:23:27;19.70;99.90
19025;DHT22;9645;51.448;6.260;2023-06-22T01:26:02;19.70;99.90
19025;DHT22;9645;51.448;6.260;2023-06-22T01:28:42;19.70;99.90
19025;DHT22;9645;51.448;6.260;2023-06-22T01:31:11;19.70;99.90
19025;DHT22;9645;51.448;6.260;2023-06-22T01:33:42;19.80;99.90
19025;DHT22;9645;51.448;6.260;2023-06-22T01:36:10;19.60;99.90
19025;DHT22;9645;51.448;6.260;2023-06-22T01:38:38;19.60;99.90
19025;DHT22;9645;51.448;6.260;2023-06-22T01:41:06;19.50;99.90
19025;DHT22;9645;51.448;6.260;2023-06-22T01:43:33;19.60;99.90
19025;DHT22;9645;51.448;6.260;2023-06-22T01:55:52;19.00;99.90
19025;DHT22;9645;51.448;6.260;2023-06-22T02:00:51;19.50;99.90
19025;DHT22;9645;51.448;6.260;2023-06-22T02:03:23;19.40;99.90
19025;DHT22;9645;51.448;6.260;2023-06-22T02:06:05;19.40;99.90
19025;DHT22;9645;51.448;6.260;2023-06-22T02:08:38;19.30;99.90
19025;DHT22;9645;51.448;6.260;2023-06-22T02:11:08;19.30;99.90
19025;DHT22;9645;51.448;6.260;2023-06-22T02:13:36;19.30;99.90
19025;DHT22;9645;51.448;6.260;2023-06-22T02:16:04;19.30;99.90
19025;DHT22;9645;51.448;6.260;2023-06-22T02:18:32;19.20;99.90
19025;DHT22;9645;51.448;6.260;2023-06-22T02:21:01;19.20;99.90
19025;DHT22;9645;51.448;6.260;2023-06-22T02:23:28;19.20;99.90
19025;DHT22;9645;51.448;6.260;2023-06-22T02:25:55;19.20;99.90
19025;DHT22;9645;51.448;6.260;2023-06-22T02:28:22;19.30;99.90
19025;DHT22;9645;51.448;6.260;2023-06-22T02:30:49;19.20;99.90
19025;DHT22;9645;51.448;6.260;2023-06-22T02:33:16;19.20;99.90
19025;DHT22;9645;51.448;6.260;2023-06-22T02:35:45;19.20;99.90
19025;DHT22;9645;51.448;6.260;2023-06-22T02:38:14;19.20;99.90
19025;DHT22;9645;51.448;6.260;2023-06-22T02:40:43;19.20;99.90
19025;DHT22;9645;51.448;6.260;2023-06-22T02:43:10;19.20;99.90
19025;DHT22;9645;51.448;6.260;2023-06-22T02:45:37;19.10;99.90
19025;DHT22;9645;51.448;6.260;2023-06-22T02:48:05;19.20;99.90
19025;DHT22;9645;51.448;6.260;2023-06-22T02:50:32;19.20;99.90
19025;DHT22;9645;51.448;6.260;2023-06-22T02:53:00;19.20;99.90
19025;DHT22;9645;51.448;6.260;2023-06-22T02:55:27;19.20;99.90
19025;DHT22;9645;51.448;6.260;2023-06-22T02:57:54;19.20;99.90
19025;DHT22;9645;51.448;6.260;2023-06-22T03:00:23;19.30;99.90
19025;DHT22;9645;51.448;6.260;2023-06-22T03:02:56;19.30;99.90
19025;DHT22;9645;51.448;6.260;2023-06-22T03:05:24;19.30;99.90
19025;DHT22;9645;51.448;6.260;2023-06-22T03:07:51;19.40;99.90
19025;DHT22;9645;51.448;6.260;2023-06-22T03:10:20;19.40;99.90
19025;DHT22;9645;51.448;6.260;2023-06-22T03:12:47;19.30;99.90
19025;DHT22;9645;51.448;6.260;2023-06-22T03:15:14;19.30;99.90
19025;DHT22;9645;51.448;6.260;2023-06-22T03:17:42;19.40;99.90
19025;DHT22;9645;51.448;6.260;2023-06-22T03:20:10;19.40;99.90
19025;DHT22;9645;51.448;6.260;2023-06-22T03:22:38;19.30;99.90
19025;DHT22;9645;51.448;6.260;2023-06-22T03:25:06;19.30;99.90
19025;DHT22;9645;51.448;6.260;2023-06-22T03:27:40;19.20;99.90
19025;DHT22;9645;51.448;6.260;2023-06-22T03:30:08;19.10;99.90
19025;DHT22;9645;51.448;6.260;2023-06-22T03:32:35;19.00;99.90
19025;DHT22;9645;51.448;6.260;2023-06-22T03:35:03;19.00;99.90
19025;DHT22;9645;51.448;6.260;2023-06-22T03:37:31;18.90;99.90
19025;DHT22;9645;51.448;6.260;2023-06-22T03:39:58;18.90;99.90
19025;DHT22;9645;51.448;6.260;2023-06-22T03:42:26;18.90;99.90
19025;DHT22;9645;51.448;6.260;2023-06-22T03:44:54;18.90;99.90
19025;DHT22;9645;51.448;6.260;2023-06-22T03:47:21;19.00;99.90
19025;DHT22;9645;51.448;6.260;2023-06-22T03:49:48;18.90;99.90
19025;DHT22;9645;51.448;6.260;2023-06-22T03:52:15;19.00;99.90
19025;DHT22;9645;51.448;6.260;2023-06-22T03:54:42;19.00;99.90
19025;DHT22;9645;51.448;6.260;2023-06-22T03:59:37;19.10;99.90
19025;DHT22;9645;51.448;6.260;2023-06-22T04:02:05;19.10;99.90
19025;DHT22;9645;51.448;6.260;2023-06-22T04:04:32;19.10;99.90
19025;DHT22;9645;51.448;6.260;2023-06-22T04:07:00;19.10;99.90
19025;DHT22;9645;51.448;6.260;2023-06-22T04:09:27;19.10;99.90
19025;DHT22;9645;51.448;6.260;2023-06-22T04:11:54;19.10;99.90
19025;DHT22;9645;51.448;6.260;2023-06-22T04:14:21;19.20;99.90
19025;DHT22;9645;51.448;6.260;2023-06-22T04:16:48;19.30;99.90
19025;DHT22;9645;51.448;6.260;2023-06-22T04:19:17;19.30;99.90
19025;DHT22;9645;51.448;6.260;2023-06-22T04:21:44;19.30;99.90
19025;DHT22;9645;51.448;6.260;2023-06-22T04:24:14;19.30;99.90
19025;DHT22;9645;51.448;6.260;2023-06-22T04:26:41;19.40;99.90
19025;DHT22;9645;51.448;6.260;2023-06-22T04:29:11;19.40;99.90
19025;DHT22;9645;51.448;6.260;2023-06-22T04:31:38;19.50;99.90
19025;DHT22;9645;51.448;6.260;2023-06-22T04:34:06;19.50;99.90
19025;DHT22;9645;51.448;6.260;2023-06-22T04:36:38;19.50;99.90
19025;DHT22;9645;51.448;6.260;2023-06-22T04:39:06;19.50;99.90
19025;DHT22;9645;51.448;6.260;2023-06-22T04:41:35;19.50;99.90
19025;DHT22;9645;51.448;6.260;2023-06-22T04:44:11;19.60;99.90
19025;DHT22;9645;51.448;6.260;2023-06-22T04:46:39;19.60;99.90
19025;DHT22;9645;51.448;6.260;2023-06-22T04:49:07;19.70;99.90
19025;DHT22;9645;51.448;6.260;2023-06-22T04:51:42;19.70;99.90
19025;DHT22;9645;51.448;6.260;2023-06-22T04:54:09;19.70;99.90
19025;DHT22;9645;51.448;6.260;2023-06-22T04:56:36;19.80;99.90
19025;DHT22;9645;51.448;6.260;2023-06-22T04:59:07;19.90;99.90
19025;DHT22;9645;51.448;6.260;2023-06-22T05:01:38;19.90;99.90
19025;DHT22;9645;51.448;6.260;2023-06-22T05:04:05;19.90;99.90
19025;DHT22;9645;51.448;6.260;2023-06-22T05:06:33;19.90;99.90
19025;DHT22;9645;51.448;6.260;2023-06-22T05:09:02;19.90;99.90
19025;DHT22;9645;51.448;6.260;2023-06-22T05:11:30;19.90;99.90
19025;DHT22;9645;51.448;6.260;2023-06-22T05:13:58;19.90;99.90
19025;DHT22;9645;51.448;6.260;2023-06-22T05:16:25;19.90;99.90
19025;DHT22;9645;51.448;6.260;2023-06-22T05:18:53;20.00;99.90
19025;DHT22;9645;51.448;6.260;2023-06-22T05:21:24;20.00;99.90
19025;DHT22;9645;51.448;6.260;2023-06-22T05:23:51;19.90;99.90
19025;DHT22;9645;51.448;6.260;2023-06-22T05:26:20;19.90;99.90
19025;DHT22;9645;51.448;6.260;2023-06-22T05:28:48;20.00;99.90
19025;DHT22;9645;51.448;6.260;2023-06-22T05:31:15;20.00;99.90
19025;DHT22;9645;51.448;6.260;2023-06-22T05:33:46;20.00;99.90
19025;DHT22;9645;51.448;6.260;2023-06-22T05:36:13;20.00;99.90
19025;DHT22;9645;51.448;6.260;2023-06-22T05:38:41;20.10;99.90
19025;DHT22;9645;51.448;6.260;2023-06-22T05:43:37;20.10;99.90
19025;DHT22;9645;51.448;6.260;2023-06-22T05:46:04;20.20;99.90
19025;DHT22;9645;51.448;6.260;2023-06-22T05:48:32;20.20;99.90
19025;DHT22;9645;51.448;6.260;2023-06-22T05:50:59;20.20;99.90
19025;DHT22;9645;51.448;6.260;2023-06-22T05:53:26;20.20;99.90
19025;DHT22;9645;51.448;6.260;2023-06-22T05:55:53;20.20;99.90
19025;DHT22;9645;51.448;6.260;2023-06-22T05:58:20;20.20;99.90
19025;DHT22;9645;51.448;6.260;2023-06-22T06:00:49;20.30;99.90
19025;DHT22;9645;51.448;6.260;2023-06-22T06:03:16;20.30;99.90
19025;DHT22;9645;51.448;6.260;2023-06-22T06:05:44;20.30;99.90
19025;DHT22;9645;51.448;6.260;2023-06-22T06:08:11;20.20;99.90
19025;DHT22;9645;51.448;6.260;2023-06-22T06:10:38;20.30;99.90
19025;DHT22;9645;51.448;6.260;2023-06-22T06:13:05;20.50;99.90
19025;DHT22;9645;51.448;6.260;2023-06-22T06:15:34;20.50;99.90
19025;DHT22;9645;51.448;6.260;2023-06-22T06:18:02;20.60;99.90
19025;DHT22;9645;51.448;6.260;2023-06-22T06:20:31;20.50;99.90
19025;DHT22;9645;51.448;6.260;2023-06-22T06:22:59;20.20;99.90
19025;DHT22;9645;51.448;6.260;2023-06-22T06:27:53;20.60;99.90
19025;DHT22;9645;51.448;6.260;2023-06-22T06:30:21;20.60;99.90
19025;DHT22;9645;51.448;6.260;2023-06-22T06:32:49;20.50;99.90
19025;DHT22;9645;51.448;6.260;2023-06-22T06:35:18;20.60;99.90
19025;DHT22;9645;51.448;6.260;2023-06-22T06:37:48;20.50;99.90
19025;DHT22;9645;51.448;6.260;2023-06-22T06:40:17;20.50;99.90
19025;DHT22;9645;51.448;6.260;2023-06-22T06:42:45;20.60;99.90
19025;DHT22;9645;51.448;6.260;2023-06-22T06:45:15;20.50;99.90
19025;DHT22;9645;51.448;6.260;2023-06-22T06:47:42;20.60;99.90
19025;DHT22;9645;51.448;6.260;2023-06-22T06:50:10;20.60;99.90
19025;DHT22;9645;51.448;6.260;2023-06-22T06:52:38;20.70;99.90
19025;DHT22;9645;51.448;6.260;2023-06-22T06:55:07;20.70;99.90
19025;DHT22;9645;51.448;6.260;2023-06-22T06:57:37;20.70;99.90
19025;DHT22;9645;51.448;6.260;2023-06-22T07:00:06;20.80;99.90
19025;DHT22;9645;51.448;6.260;2023-06-22T07:02:37;20.80;99.90
19025;DHT22;9645;51.448;6.260;2023-06-22T07:05:05;20.90;99.90
19025;DHT22;9645;51.448;6.260;2023-06-22T07:07:32;21.00;99.90
19025;DHT22;9645;51.448;6.260;2023-06-22T07:10:01;21.00;99.90
19025;DHT22;9645;51.448;6.260;2023-06-22T07:12:28;21.10;99.90
19025;DHT22;9645;51.448;6.260;2023-06-22T07:15:01;21.20;99.90
19025;DHT22;9645;51.448;6.260;2023-06-22T07:17:28;21.10;99.90
19025;DHT22;9645;51.448;6.260;2023-06-22T07:19:56;21.20;99.90
19025;DHT22;9645;51.448;6.260;2023-06-22T07:22:23;21.30;99.90
19025;DHT22;9645;51.448;6.260;2023-06-22T07:24:50;21.40;99.90
19025;DHT22;9645;51.448;6.260;2023-06-22T07:27:18;22.00;99.90
19025;DHT22;9645;51.448;6.260;2023-06-22T07:29:46;21.60;99.90
19025;DHT22;9645;51.448;6.260;2023-06-22T07:32:14;21.70;99.90
19025;DHT22;9645;51.448;6.260;2023-06-22T07:34:41;22.00;99.90
19025;DHT22;9645;51.448;6.260;2023-06-22T07:37:08;22.10;99.90
19025;DHT22;9645;51.448;6.260;2023-06-22T07:39:35;22.20;99.90
19025;DHT22;9645;51.448;6.260;2023-06-22T07:42:04;22.30;99.90
19025;DHT22;9645;51.448;6.260;2023-06-22T07:44:32;22.40;99.90
19025;DHT22;9645;51.448;6.260;2023-06-22T07:46:59;22.50;41.60
19025;DHT22;9645;51.448;6.260;2023-06-22T07:49:28;22.60;23.50
19025;DHT22;9645;51.448;6.260;2023-06-22T07:51:55;22.70;1.00
19025;DHT22;9645;51.448;6.260;2023-06-22T07:54:22;22.80;1.00
19025;DHT22;9645;51.448;6.260;2023-06-22T07:56:49;23.00;1.00
19025;DHT22;9645;51.448;6.260;2023-06-22T08:01:45;23.10;1.00
19025;DHT22;9645;51.448;6.260;2023-06-22T08:04:15;23.10;1.00
19025;DHT22;9645;51.448;6.260;2023-06-22T08:06:42;23.20;1.00
19025;DHT22;9645;51.448;6.260;2023-06-22T08:09:09;23.10;1.00
19025;DHT22;9645;51.448;6.260;2023-06-22T08:11:36;23.10;99.90
19025;DHT22;9645;51.448;6.260;2023-06-22T08:14:03;23.00;1.00
19025;DHT22;9645;51.448;6.260;2023-06-22T08:16:32;23.00;99.90
19025;DHT22;9645;51.448;6.260;2023-06-22T08:19:01;23.10;1.00
19025;DHT22;9645;51.448;6.260;2023-06-22T08:21:28;23.00;1.00
19025;DHT22;9645;51.448;6.260;2023-06-22T08:23:56;23.00;1.00
19025;DHT22;9645;51.448;6.260;2023-06-22T08:26:23;23.00;1.00
19025;DHT22;9645;51.448;6.260;2023-06-22T08:31:18;23.30;99.90
19025;DHT22;9645;51.448;6.260;2023-06-22T08:33:46;23.40;4.90
19025;DHT22;9645;51.448;6.260;2023-06-22T08:36:15;23.40;99.90
19025;DHT22;9645;51.448;6.260;2023-06-22T08:38:41;23.40;1.00
19025;DHT22;9645;51.448;6.260;2023-06-22T08:41:08;23.50;43.30
19025;DHT22;9645;51.448;6.260;2023-06-22T08:43:35;23.60;1.00
19025;DHT22;9645;51.448;6.260;2023-06-22T08:46:02;23.60;99.90
19025;DHT22;9645;51.448;6.260;2023-06-22T08:48:29;23.50;99.90
19025;DHT22;9645;51.448;6.260;2023-06-22T08:50:56;23.50;99.90
19025;DHT22;9645;51.448;6.260;2023-06-22T08:53:25;23.50;99.90
19025;DHT22;9645;51.448;6.260;2023-06-22T08:55:52;23.50;71.20
19025;DHT22;9645;51.448;6.260;2023-06-22T08:58:19;23.60;1.00
19025;DHT22;9645;51.448;6.260;2023-06-22T09:00:47;23.80;1.00
19025;DHT22;9645;51.448;6.260;2023-06-22T09:03:14;23.80;1.00
19025;DHT22;9645;51.448;6.260;2023-06-22T09:05:41;24.00;18.30
19025;DHT22;9645;51.448;6.260;2023-06-22T09:08:08;24.10;1.00
19025;DHT22;9645;51.448;6.260;2023-06-22T09:10:39;24.50;43.30
19025;DHT22;9645;51.448;6.260;2023-06-22T09:13:08;24.50;1.00
19025;DHT22;9645;51.448;6.260;2023-06-22T09:15:37;24.70;1.00
19025;DHT22;9645;51.448;6.260;2023-06-22T09:18:04;24.90;1.00
19025;DHT22;9645;51.448;6.260;2023-06-22T09:20:33;25.50;99.90
19025;DHT22;9645;51.448;6.260;2023-06-22T09:23:03;25.90;99.90
19025;DHT22;9645;51.448;6.260;2023-06-22T09:25:31;26.10;1.00
19025;DHT22;9645;51.448;6.260;2023-06-22T09:28:01;26.00;1.00
19025;DHT22;9645;51.448;6.260;2023-06-22T09:30:30;25.80;1.00
19025;DHT22;9645;51.448;6.260;2023-06-22T09:32:58;25.90;28.90
19025;DHT22;9645;51.448;6.260;2023-06-22T09:35:27;25.80;1.00
19025;DHT22;9645;51.448;6.260;2023-06-22T09:37:57;25.70;1.00
19025;DHT22;9645;51.448;6.260;2023-06-22T09:40:25;25.40;28.60
19025;DHT22;9645;51.448;6.260;2023-06-22T09:42:57;25.20;99.90
19025;DHT22;9645;51.448;6.260;2023-06-22T09:45:32;24.90;1.00
19025;DHT22;9645;51.448;6.260;2023-06-22T09:48:01;24.50;1.00
19025;DHT22;9645;51.448;6.260;2023-06-22T09:50:29;24.40;1.00
19025;DHT22;9645;51.448;6.260;2023-06-22T09:52:57;24.10;1.00
19025;DHT22;9645;51.448;6.260;2023-06-22T09:55:25;23.90;99.90
19025;DHT22;9645;51.448;6.260;2023-06-22T09:57:53;23.80;1.00
19025;DHT22;9645;51.448;6.260;2023-06-22T10:00:23;24.00;99.90
19025;DHT22;9645;51.448;6.260;2023-06-22T10:02:56;23.70;1.00
19025;DHT22;9645;51.448;6.260;2023-06-22T10:05:25;23.50;1.00
19025;DHT22;9645;51.448;6.260;2023-06-22T10:07:52;23.50;1.00
19025;DHT22;9645;51.448;6.260;2023-06-22T10:10:20;23.50;11.00
19025;DHT22;9645;51.448;6.260;2023-06-22T10:12:56;23.40;1.00
19025;DHT22;9645;51.448;6.260;2023-06-22T10:15:24;23.30;1.00
19025;DHT22;9645;51.448;6.260;2023-06-22T10:17:54;23.40;1.00
19025;DHT22;9645;51.448;6.260;2023-06-22T10:20:21;23.60;99.90
19025;DHT22;9645;51.448;6.260;2023-06-22T10:22:49;23.60;58.80
19025;DHT22;9645;51.448;6.260;2023-06-22T10:25:17;23.70;99.90
19025;DHT22;9645;51.448;6.260;2023-06-22T10:27:45;23.80;99.90
19025;DHT22;9645;51.448;6.260;2023-06-22T10:30:14;23.90;95.50
19025;DHT22;9645;51.448;6.260;2023-06-22T10:32:43;24.00;1.00
19025;DHT22;9645;51.448;6.260;2023-06-22T10:35:17;24.10;1.00
19025;DHT22;9645;51.448;6.260;2023-06-22T10:37:45;24.20;99.90
19025;DHT22;9645;51.448;6.260;2023-06-22T10:40:15;24.20;1.00
19025;DHT22;9645;51.448;6.260;2023-06-22T10:42:44;24.20;1.00
19025;DHT22;9645;51.448;6.260;2023-06-22T10:45:13;24.20;99.90
19025;DHT22;9645;51.448;6.260;2023-06-22T10:47:41;24.20;99.90
19025;DHT22;9645;51.448;6.260;2023-06-22T10:50:09;24.10;99.90
19025;DHT22;9645;51.448;6.260;2023-06-22T10:52:39;24.00;99.90
19025;DHT22;9645;51.448;6.260;2023-06-22T10:55:08;24.10;99.90
19025;DHT22;9645;51.448;6.260;2023-06-22T10:57:35;23.90;1.00
19025;DHT22;9645;51.448;6.260;2023-06-22T11:00:06;23.90;1.00
19025;DHT22;9645;51.448;6.260;2023-06-22T11:02:34;23.80;99.90
19025;DHT22;9645;51.448;6.260;2023-06-22T11:05:01;23.90;1.00
19025;DHT22;9645;51.448;6.260;2023-06-22T11:07:29;24.00;99.90
19025;DHT22;9645;51.448;6.260;2023-06-22T11:09:59;23.90;1.00
19025;DHT22;9645;51.448;6.260;2023-06-22T11:12:26;23.80;99.90
19025;DHT22;9645;51.448;6.260;2023-06-22T11:14:53;23.80;1.00
19025;DHT22;9645;51.448;6.260;2023-06-22T11:17:22;23.80;71.40
19025;DHT22;9645;51.448;6.260;2023-06-22T11:19:50;23.80;99.90
19025;DHT22;9645;51.448;6.260;2023-06-22T11:22:17;23.80;99.90
19025;DHT22;9645;51.448;6.260;2023-06-22T11:24:44;23.80;99.90
19025;DHT22;9645;51.448;6.260;2023-06-22T11:27:13;23.80;99.90
19025;DHT22;9645;51.448;6.260;2023-06-22T11:29:40;23.90;99.90
19025;DHT22;9645;51.448;6.260;2023-06-22T11:32:07;23.80;99.90
19025;DHT22;9645;51.448;6.260;2023-06-22T11:34:34;23.80;99.90
19025;DHT22;9645;51.448;6.260;2023-06-22T11:37:01;23.70;99.90
19025;DHT22;9645;51.448;6.260;2023-06-22T11:39:28;23.70;99.90
19025;DHT22;9645;51.448;6.260;2023-06-22T11:41:55;23.80;99.90
19025;DHT22;9645;51.448;6.260;2023-06-22T11:44:24;23.80;99.90
19025;DHT22;9645;51.448;6.260;2023-06-22T11:46:51;23.90;99.90
19025;DHT22;9645;51.448;6.260;2023-06-22T11:49:17;23.90;99.90
19025;DHT22;9645;51.448;6.260;2023-06-22T11:51:44;23.90;99.90
19025;DHT22;9645;51.448;6.260;2023-06-22T11:54:12;23.80;99.90
19025;DHT22;9645;51.448;6.260;2023-06-22T11:56:39;23.70;99.90
19025;DHT22;9645;51.448;6.260;2023-06-22T11:59:06;23.50;99.90
19025;DHT22;9645;51.448;6.260;2023-06-22T12:01:34;23.50;99.90
19025;DHT22;9645;51.448;6.260;2023-06-22T12:04:01;23.30;99.90
19025;DHT22;9645;51.448;6.260;2023-06-22T12:06:31;23.20;99.90
19025;DHT22;9645;51.448;6.260;2023-06-22T12:08:58;23.20;99.90
19025;DHT22;9645;51.448;6.260;2023-06-22T12:11:24;23.20;99.90
19025;DHT22;9645;51.448;6.260;2023-06-22T12:13:51;23.30;99.90
19025;DHT22;9645;51.448;6.260;2023-06-22T12:16:18;23.50;99.90
19025;DHT22;9645;51.448;6.260;2023-06-22T12:18:48;23.60;99.90
19025;DHT22;9645;51.448;6.260;2023-06-22T12:21:15;23.60;99.90
19025;DHT22;9645;51.448;6.260;2023-06-22T12:23:42;24.10;99.90
19025;DHT22;9645;51.448;6.260;2023-06-22T12:26:09;24.30;99.90
19025;DHT22;9645;51.448;6.260;2023-06-22T12:28:36;24.50;99.90
19025;DHT22;9645;51.448;6.260;2023-06-22T12:31:03;24.50;99.90
19025;DHT22;9645;51.448;6.260;2023-06-22T12:33:30;24.70;99.90
19025;DHT22;9645;51.448;6.260;2023-06-22T12:35:58;24.50;99.90
19025;DHT22;9645;51.448;6.260;2023-06-22T12:38:25;24.50;99.90
19025;DHT22;9645;51.448;6.260;2023-06-22T12:40:54;24.20;99.90
19025;DHT22;9645;51.448;6.260;2023-06-22T12:43:26;23.80;99.90
19025;DHT22;9645;51.448;6.260;2023-06-22T12:45:53;23.60;99.90
19025;DHT22;9645;51.448;6.260;2023-06-22T12:48:21;23.50;99.90
19025;DHT22;9645;51.448;6.260;2023-06-22T12:50:48;23.50;99.90
19025;DHT22;9645;51.448;6.260;2023-06-22T12:53:17;23.40;99.90
19025;DHT22;9645;51.448;6.260;2023-06-22T12:55:44;23.50;99.90
19025;DHT22;9645;51.448;6.260;2023-06-22T12:58:10;23.50;99.90
19025;DHT22;9645;51.448;6.260;2023-06-22T13:00:38;23.80;99.90
19025;DHT22;9645;51.448;6.260;2023-06-22T13:03:05;23.90;99.90
19025;DHT22;9645;51.448;6.260;2023-06-22T13:05:32;24.20;99.90
19025;DHT22;9645;51.448;6.260;2023-06-22T13:08:00;24.40;99.90
19025;DHT22;9645;51.448;6.260;2023-06-22T13:10:29;24.50;99.90
19025;DHT22;9645;51.448;6.260;2023-06-22T13:12:55;24.60;99.90
19025;DHT22;9645;51.448;6.260;2023-06-22T13:15:26;24.80;99.90
19025;DHT22;9645;51.448;6.260;2023-06-22T13:17:53;24.60;99.90
19025;DHT22;9645;51.448;6.260;2023-06-22T13:20:20;24.60;99.90
19025;DHT22;9645;51.448;6.260;2023-06-22T13:22:47;24.70;99.90
19025;DHT22;9645;51.448;6.260;2023-06-22T13:25:14;24.70;99.90
19025;DHT22;9645;51.448;6.260;2023-06-22T13:27:46;23.60;99.90
19025;DHT22;9645;51.448;6.260;2023-06-22T13:30:13;24.60;99.90
19025;DHT22;9645;51.448;6.260;2023-06-22T13:32:40;24.80;99.90
19025;DHT22;9645;51.448;6.260;2023-06-22T13:35:08;24.60;99.90
19025;DHT22;9645;51.448;6.260;2023-06-22T13:37:36;24.40;99.90
19025;DHT22;9645;51.448;6.260;2023-06-22T13:40:03;24.10;99.90
19025;DHT22;9645;51.448;6.260;2023-06-22T13:42:32;24.00;99.90
19025;DHT22;9645;51.448;6.260;2023-06-22T13:45:00;23.80;99.90
19025;DHT22;9645;51.448;6.260;2023-06-22T13:47:29;23.70;99.90
19025;DHT22;9645;51.448;6.260;2023-06-22T13:49:56;23.70;99.90
19025;DHT22;9645;51.448;6.260;2023-06-22T13:52:23;23.50;99.90
19025;DHT22;9645;51.448;6.260;2023-06-22T13:54:50;23.40;99.90
19025;DHT22;9645;51.448;6.260;2023-06-22T13:57:17;23.20;99.90
19025;DHT22;9645;51.448;6.260;2023-06-22T13:59:44;23.10;99.90
19025;DHT22;9645;51.448;6.260;2023-06-22T14:02:12;23.10;99.90
19025;DHT22;9645;51.448;6.260;2023-06-22T14:04:39;23.10;99.90
19025;DHT22;9645;51.448;6.260;2023-06-22T14:07:06;23.00;99.90
19025;DHT22;9645;51.448;6.260;2023-06-22T14:09:33;22.90;99.90
19025;DHT22;9645;51.448;6.260;2023-06-22T14:12:03;22.80;99.90
19025;DHT22;9645;51.448;6.260;2023-06-22T14:14:30;22.60;99.90
19025;DHT22;9645;51.448;6.260;2023-06-22T14:16:57;22.50;99.90
19025;DHT22;9645;51.448;6.260;2023-06-22T14:19:25;22.50;99.90
19025;DHT22;9645;51.448;6.260;2023-06-22T14:21:52;22.30;99.90
19025;DHT22;9645;51.448;6.260;2023-06-22T14:24:19;22.30;99.90
19025;DHT22;9645;51.448;6.260;2023-06-22T14:26:46;22.30;99.90
19025;DHT22;9645;51.448;6.260;2023-06-22T14:29:13;22.30;99.90
19025;DHT22;9645;51.448;6.260;2023-06-22T14:31:40;22.40;99.90
19025;DHT22;9645;51.448;6.260;2023-06-22T14:34:07;22.40;99.90
19025;DHT22;9645;51.448;6.260;2023-06-22T14:36:36;22.40;99.90
19025;DHT22;9645;51.448;6.260;2023-06-22T14:39:03;22.30;99.90
19025;DHT22;9645;51.448;6.260;2023-06-22T14:41:30;22.20;99.90
19025;DHT22;9645;51.448;6.260;2023-06-22T14:43:57;22.10;99.90
19025;DHT22;9645;51.448;6.260;2023-06-22T14:46:24;22.00;99.90
19025;DHT22;9645;51.448;6.260;2023-06-22T14:48:51;21.90;99.90
19025;DHT22;9645;51.448;6.260;2023-06-22T14:51:18;21.90;99.90
19025;DHT22;9645;51.448;6.260;2023-06-22T14:53:46;21.80;99.90
19025;DHT22;9645;51.448;6.260;2023-06-22T14:56:14;21.70;99.90
19025;DHT22;9645;51.448;6.260;2023-06-22T14:58:41;21.70;99.90
19025;DHT22;9645;51.448;6.260;2023-06-22T15:01:11;21.60;99.90
19025;DHT22;9645;51.448;6.260;2023-06-22T15:03:38;21.50;99.90
19025;DHT22;9645;51.448;6.260;2023-06-22T15:06:05;21.50;99.90
19025;DHT22;9645;51.448;6.260;2023-06-22T15:08:33;21.40;99.90
19025;DHT22;9645;51.448;6.260;2023-06-22T15:11:01;21.30;99.90
19025;DHT22;9645;51.448;6.260;2023-06-22T15:13:29;21.30;99.90
19025;DHT22;9645;51.448;6.260;2023-06-22T15:15:58;21.30;99.90
19025;DHT22;9645;51.448;6.260;2023-06-22T15:18:25;21.30;99.90
19025;DHT22;9645;51.448;6.260;2023-06-22T15:20:52;21.10;99.90
19025;DHT22;9645;51.448;6.260;2023-06-22T15:23:19;21.00;99.90
19025;DHT22;9645;51.448;6.260;2023-06-22T15:25:46;20.90;99.90
19025;DHT22;9645;51.448;6.260;2023-06-22T15:28:15;20.90;99.90
19025;DHT22;9645;51.448;6.260;2023-06-22T15:30:42;20.90;99.90
19025;DHT22;9645;51.448;6.260;2023-06-22T15:33:08;20.80;99.90
19025;DHT22;9645;51.448;6.260;2023-06-22T15:35:35;20.60;99.90
19025;DHT22;9645;51.448;6.260;2023-06-22T15:38:02;20.50;99.90
19025;DHT22;9645;51.448;6.260;2023-06-22T15:40:29;20.40;99.90
19025;DHT22;9645;51.448;6.260;2023-06-22T15:42:56;20.30;99.90
19025;DHT22;9645;51.448;6.260;2023-06-22T15:45:25;21.10;99.90
19025;DHT22;9645;51.448;6.260;2023-06-22T15:47:52;20.20;99.90
19025;DHT22;9645;51.448;6.260;2023-06-22T15:50:19;20.10;99.90
19025;DHT22;9645;51.448;6.260;2023-06-22T15:52:46;20.10;99.90
19025;DHT22;9645;51.448;6.260;2023-06-22T15:55:16;20.00;99.90
19025;DHT22;9645;51.448;6.260;2023-06-22T15:57:43;20.00;99.90
19025;DHT22;9645;51.448;6.260;2023-06-22T16:00:13;19.90;99.90
19025;DHT22;9645;51.448;6.260;2023-06-22T16:02:48;19.90;99.90
19025;DHT22;9645;51.448;6.260;2023-06-22T16:05:16;21.50;99.90
19025;DHT22;9645;51.448;6.260;2023-06-22T16:07:43;19.70;99.90
19025;DHT22;9645;51.448;6.260;2023-06-22T16:10:10;19.80;99.90
19025;DHT22;9645;51.448;6.260;2023-06-22T16:12:42;19.70;99.90
19025;DHT22;9645;51.448;6.260;2023-06-22T16:15:11;19.90;99.90
19025;DHT22;9645;51.448;6.260;2023-06-22T16:17:38;19.60;99.90
19025;DHT22;9645;51.448;6.260;2023-06-22T16:22:36;19.70;99.90
19025;DHT22;9645;51.448;6.260;2023-06-22T16:25:03;19.70;99.90
19025;DHT22;9645;51.448;6.260;2023-06-22T16:27:32;19.70;99.90
19025;DHT22;9645;51.448;6.260;2023-06-22T16:29:59;19.60;99.90
19025;DHT22;9645;51.448;6.260;2023-06-22T16:32:26;19.50;99.90